sensor_id;sensor_type;location;lat;lon;timestamp;temperature;humidity
16273;DHT22;8244;50.044;9.006;2022-12-10T00:03:03;0.70;99.90
16273;DHT22;8244;50.044;9.006;2022-12-10T00:08:05;0.70;99.90
16273;DHT22;8244;50.044;9.006;2022-12-10T00:13:08;0.60;99.90
16273;DHT22;8244;50.044;9.006;2022-12-10T00:18:10;0.60;99.90
16273;DHT22;8244;50.044;9.006;2022-12-10T00:23:11;0.60;99.90
16273;DHT22;8244;50.044;9.006;2022-12-10T00:28:14;0.60;99.90
16273;DHT22;8244;50.044;9.006;2022-12-10T00:33:16;0.60;99.90
16273;DHT22;8244;50.044;9.006;2022-12-10T00:38:18;0.50;99.90
16273;DHT22;8244;50.044;9.006;2022-12-10T00:43:21;0.50;99.90
16273;DHT22;8244;50.044;9.006;2022-12-10T00:48:23;0.50;99.90
16273;DHT22;8244;50.044;9.006;2022-12-10T00:53:25;0.50;99.90
16273;DHT22;8244;50.044;9.006;2022-12-10T00:58:30;0.50;99.90
16273;DHT22;8244;50.044;9.006;2022-12-10T01:03:31;0.40;99.90
16273;DHT22;8244;50.044;9.006;2022-12-10T01:08:33;0.40;99.90
16273;DHT22;8244;50.044;9.006;2022-12-10T01:13:36;0.40;99.90
16273;DHT22;8244;50.044;9.006;2022-12-10T01:18:39;0.30;99.90
16273;DHT22;8244;50.044;9.006;2022-12-10T01:23:43;0.20;99.90
16273;DHT22;8244;50.044;9.006;2022-12-10T01:28:46;0.20;99.90
16273;DHT22;8244;50.044;9.006;2022-12-10T01:33:48;0.20;99.90
16273;DHT22;8244;50.044;9.006;2022-12-10T01:38:51;0.10;99.90
16273;DHT22;8244;50.044;9.006;2022-12-10T01:43:59;0.10;99.90
16273;DHT22;8244;50.044;9.006;2022-12-10T01:49:04;0.00;99.90
16273;DHT22;8244;50.044;9.006;2022-12-10T01:54:09;0.00;99.90
16273;DHT22;8244;50.044;9.006;2022-12-10T01:59:12;-0.10;99.90
16273;DHT22;8244;50.044;9.006;2022-12-10T02:04:20;-0.20;99.90
16273;DHT22;8244;50.044;9.006;2022-12-10T02:09:32;-0.20;99.90
16273;DHT22;8244;50.044;9.006;2022-12-10T02:14:43;-0.30;99.90
16273;DHT22;8244;50.044;9.006;2022-12-10T02:19:58;-0.40;99.90
16273;DHT22;8244;50.044;9.006;2022-12-10T02:25:04;-0.50;99.90
16273;DHT22;8244;50.044;9.006;2022-12-10T02:30:10;-0.60;99.90
16273;DHT22;8244;50.044;9.006;2022-12-10T02:35:15;-0.70;99.90
16273;DHT22;8244;50.044;9.006;2022-12-10T02:40:20;-0.80;99.90
16273;DHT22;8244;50.044;9.006;2022-12-10T02:45:28;-0.90;99.90
16273;DHT22;8244;50.044;9.006;2022-12-10T02:50:31;-0.90;99.90
16273;DHT22;8244;50.044;9.006;2022-12-10T02:55:46;-1.00;99.90
16273;DHT22;8244;50.044;9.006;2022-12-10T03:01:01;-1.10;99.90
16273;DHT22;8244;50.044;9.006;2022-12-10T03:06:10;-1.20;99.90
16273;DHT22;8244;50.044;9.006;2022-12-10T03:11:15;-1.20;99.90
16273;DHT22;8244;50.044;9.006;2022-12-10T03:16:20;-1.30;99.90
16273;DHT22;8244;50.044;9.006;2022-12-10T03:21:24;-1.40;99.90
16273;DHT22;8244;50.044;9.006;2022-12-10T03:26:31;-1.50;99.90
16273;DHT22;8244;50.044;9.006;2022-12-10T03:31:34;-1.60;99.90
16273;DHT22;8244;50.044;9.006;2022-12-10T03:36:37;-1.60;99.90
16273;DHT22;8244;50.044;9.006;2022-12-10T03:41:39;-1.70;99.90
16273;DHT22;8244;50.044;9.006;2022-12-10T03:46:42;-1.80;99.90
16273;DHT22;8244;50.044;9.006;2022-12-10T03:51:44;-1.90;99.90
16273;DHT22;8244;50.044;9.006;2022-12-10T03:56:46;-2.00;99.90
16273;DHT22;8244;50.044;9.006;2022-12-10T04:01:49;-2.10;99.90
16273;DHT22;8244;50.044;9.006;2022-12-10T04:06:50;-2.20;99.90
16273;DHT22;8244;50.044;9.006;2022-12-10T04:11:55;-2.30;99.90
16273;DHT22;8244;50.044;9.006;2022-12-10T04:16:58;-2.30;99.90
16273;DHT22;8244;50.044;9.006;2022-12-10T04:22:00;-2.40;99.90
16273;DHT22;8244;50.044;9.006;2022-12-10T04:27:22;-2.50;99.90
16273;DHT22;8244;50.044;9.006;2022-12-10T04:32:27;-2.50;99.90
16273;DHT22;8244;50.044;9.006;2022-12-10T04:37:29;-2.60;99.90
16273;DHT22;8244;50.044;9.006;2022-12-10T04:42:31;-2.60;99.90
16273;DHT22;8244;50.044;9.006;2022-12-10T04:47:33;-2.70;99.90
16273;DHT22;8244;50.044;9.006;2022-12-10T04:52:35;-2.70;99.90
16273;DHT22;8244;50.044;9.006;2022-12-10T04:57:37;-2.70;99.90
16273;DHT22;8244;50.044;9.006;2022-12-10T05:02:40;-2.80;99.90
16273;DHT22;8244;50.044;9.006;2022-12-10T05:07:41;-2.80;99.90
16273;DHT22;8244;50.044;9.006;2022-12-10T05:12:43;-2.80;99.90
16273;DHT22;8244;50.044;9.006;2022-12-10T05:17:46;-2.80;99.90
16273;DHT22;8244;50.044;9.006;2022-12-10T05:22:48;-2.90;99.90
16273;DHT22;8244;50.044;9.006;2022-12-10T05:28:07;-2.80;99.90
16273;DHT22;8244;50.044;9.006;2022-12-10T05:33:10;-2.70;99.90
16273;DHT22;8244;50.044;9.006;2022-12-10T05:38:11;-2.70;99.90
16273;DHT22;8244;50.044;9.006;2022-12-10T05:43:13;-2.70;99.90
16273;DHT22;8244;50.044;9.006;2022-12-10T05:48:16;-2.60;99.90
16273;DHT22;8244;50.044;9.006;2022-12-10T05:53:18;-2.50;99.90
16273;DHT22;8244;50.044;9.006;2022-12-10T05:58:20;-2.40;99.90
16273;DHT22;8244;50.044;9.006;2022-12-10T06:03:23;-2.30;99.90
16273;DHT22;8244;50.044;9.006;2022-12-10T06:08:25;-2.30;99.90
16273;DHT22;8244;50.044;9.006;2022-12-10T06:13:26;-2.20;99.90
16273;DHT22;8244;50.044;9.006;2022-12-10T06:18:29;-2.20;99.90
16273;DHT22;8244;50.044;9.006;2022-12-10T06:23:31;-2.10;99.90
16273;DHT22;8244;50.044;9.006;2022-12-10T06:28:34;-2.10;99.90
16273;DHT22;8244;50.044;9.006;2022-12-10T06:33:37;-2.00;99.90
16273;DHT22;8244;50.044;9.006;2022-12-10T06:38:39;-2.00;99.90
16273;DHT22;8244;50.044;9.006;2022-12-10T06:43:41;-2.00;99.90
16273;DHT22;8244;50.044;9.006;2022-12-10T06:48:44;-1.90;99.90
16273;DHT22;8244;50.044;9.006;2022-12-10T06:53:46;-1.90;99.90
16273;DHT22;8244;50.044;9.006;2022-12-10T06:58:48;-1.90;99.90
16273;DHT22;8244;50.044;9.006;2022-12-10T07:03:52;-1.80;99.90
16273;DHT22;8244;50.044;9.006;2022-12-10T07:08:55;-1.80;99.90
16273;DHT22;8244;50.044;9.006;2022-12-10T07:13:58;-1.70;99.90
16273;DHT22;8244;50.044;9.006;2022-12-10T07:19:02;-1.70;99.90
16273;DHT22;8244;50.044;9.006;2022-12-10T07:24:05;-1.60;99.90
16273;DHT22;8244;50.044;9.006;2022-12-10T07:29:12;-1.60;99.90
16273;DHT22;8244;50.044;9.006;2022-12-10T07:34:16;-1.50;99.90
16273;DHT22;8244;50.044;9.006;2022-12-10T07:39:18;-1.40;99.90
16273;DHT22;8244;50.044;9.006;2022-12-10T07:44:20;-1.30;99.90
16273;DHT22;8244;50.044;9.006;2022-12-10T07:49:23;-1.30;99.90
16273;DHT22;8244;50.044;9.006;2022-12-10T07:54:25;-1.20;99.90
16273;DHT22;8244;50.044;9.006;2022-12-10T07:59:27;-1.10;99.90
16273;DHT22;8244;50.044;9.006;2022-12-10T08:04:30;-1.00;99.90
16273;DHT22;8244;50.044;9.006;2022-12-10T08:09:31;-0.90;99.90
16273;DHT22;8244;50.044;9.006;2022-12-10T08:14:33;-0.80;99.90
16273;DHT22;8244;50.044;9.006;2022-12-10T08:19:36;-0.80;99.90
16273;DHT22;8244;50.044;9.006;2022-12-10T08:24:38;-0.70;99.90
16273;DHT22;8244;50.044;9.006;2022-12-10T08:29:39;-0.60;99.90
16273;DHT22;8244;50.044;9.006;2022-12-10T08:34:42;-0.50;99.90
16273;DHT22;8244;50.044;9.006;2022-12-10T08:39:44;-0.40;99.90
16273;DHT22;8244;50.044;9.006;2022-12-10T08:44:46;-0.30;99.90
16273;DHT22;8244;50.044;9.006;2022-12-10T08:49:49;-0.20;99.90
16273;DHT22;8244;50.044;9.006;2022-12-10T08:54:50;-0.10;99.90
16273;DHT22;8244;50.044;9.006;2022-12-10T08:59:52;0.10;99.90
16273;DHT22;8244;50.044;9.006;2022-12-10T09:04:55;0.20;99.90
16273;DHT22;8244;50.044;9.006;2022-12-10T09:09:56;0.30;99.90
16273;DHT22;8244;50.044;9.006;2022-12-10T09:14:59;0.40;99.90
16273;DHT22;8244;50.044;9.006;2022-12-10T09:20:02;0.50;99.90
16273;DHT22;8244;50.044;9.006;2022-12-10T09:25:05;0.60;99.90
16273;DHT22;8244;50.044;9.006;2022-12-10T09:30:09;0.70;99.90
16273;DHT22;8244;50.044;9.006;2022-12-10T09:35:12;0.90;99.90
16273;DHT22;8244;50.044;9.006;2022-12-10T09:40:15;1.00;99.90
16273;DHT22;8244;50.044;9.006;2022-12-10T09:45:21;1.10;99.90
16273;DHT22;8244;50.044;9.006;2022-12-10T09:50:47;1.10;99.90
16273;DHT22;8244;50.044;9.006;2022-12-10T09:55:50;1.20;99.90
16273;DHT22;8244;50.044;9.006;2022-12-10T10:00:57;1.30;99.90
16273;DHT22;8244;50.044;9.006;2022-12-10T10:06:03;1.40;99.90
16273;DHT22;8244;50.044;9.006;2022-12-10T10:11:05;1.50;99.90
16273;DHT22;8244;50.044;9.006;2022-12-10T10:16:19;1.70;99.90
16273;DHT22;8244;50.044;9.006;2022-12-10T10:21:25;1.70;99.90
16273;DHT22;8244;50.044;9.006;2022-12-10T10:26:28;1.80;99.90
16273;DHT22;8244;50.044;9.006;2022-12-10T10:31:32;1.80;99.90
16273;DHT22;8244;50.044;9.006;2022-12-10T10:36:37;1.90;99.90
16273;DHT22;8244;50.044;9.006;2022-12-10T10:41:39;1.90;99.90
16273;DHT22;8244;50.044;9.006;2022-12-10T10:46:42;2.00;99.90
16273;DHT22;8244;50.044;9.006;2022-12-10T10:51:45;2.00;99.90
16273;DHT22;8244;50.044;9.006;2022-12-10T10:56:47;2.00;99.90
16273;DHT22;8244;50.044;9.006;2022-12-10T11:01:51;2.00;99.90
16273;DHT22;8244;50.044;9.006;2022-12-10T11:06:55;2.00;99.90
16273;DHT22;8244;50.044;9.006;2022-12-10T11:11:59;2.10;99.90
16273;DHT22;8244;50.044;9.006;2022-12-10T11:17:10;2.20;99.90
16273;DHT22;8244;50.044;9.006;2022-12-10T11:22:19;2.30;99.90
16273;DHT22;8244;50.044;9.006;2022-12-10T11:27:33;2.30;99.90
16273;DHT22;8244;50.044;9.006;2022-12-10T11:32:56;2.40;99.90
16273;DHT22;8244;50.044;9.006;2022-12-10T11:38:08;2.40;99.90
16273;DHT22;8244;50.044;9.006;2022-12-10T11:43:29;2.50;99.90
16273;DHT22;8244;50.044;9.006;2022-12-10T11:48:46;2.60;99.90
16273;DHT22;8244;50.044;9.006;2022-12-10T11:54:00;2.60;99.90
16273;DHT22;8244;50.044;9.006;2022-12-10T11:59:12;2.60;99.90
16273;DHT22;8244;50.044;9.006;2022-12-10T12:04:24;2.60;99.90
16273;DHT22;8244;50.044;9.006;2022-12-10T12:09:35;2.60;99.90
16273;DHT22;8244;50.044;9.006;2022-12-10T12:14:43;2.70;99.90
16273;DHT22;8244;50.044;9.006;2022-12-10T12:19:49;2.80;99.90
16273;DHT22;8244;50.044;9.006;2022-12-10T12:24:55;2.80;99.90
16273;DHT22;8244;50.044;9.006;2022-12-10T12:30:05;2.70;99.90
16273;DHT22;8244;50.044;9.006;2022-12-10T12:35:13;2.70;99.90
16273;DHT22;8244;50.044;9.006;2022-12-10T12:40:27;2.60;99.90
16273;DHT22;8244;50.044;9.006;2022-12-10T12:45:34;2.60;99.90
16273;DHT22;8244;50.044;9.006;2022-12-10T12:50:42;2.50;99.90
16273;DHT22;8244;50.044;9.006;2022-12-10T12:55:50;2.40;99.90
16273;DHT22;8244;50.044;9.006;2022-12-10T13:00:58;2.40;99.90
16273;DHT22;8244;50.044;9.006;2022-12-10T13:06:18;2.40;99.90
16273;DHT22;8244;50.044;9.006;2022-12-10T13:11:32;2.40;99.90
16273;DHT22;8244;50.044;9.006;2022-12-10T13:16:35;2.50;99.90
16273;DHT22;8244;50.044;9.006;2022-12-10T13:21:57;2.60;99.90
16273;DHT22;8244;50.044;9.006;2022-12-10T13:27:10;2.70;99.90
16273;DHT22;8244;50.044;9.006;2022-12-10T13:32:18;2.70;99.90
16273;DHT22;8244;50.044;9.006;2022-12-10T13:37:30;2.70;99.90
16273;DHT22;8244;50.044;9.006;2022-12-10T13:42:35;2.80;99.90
16273;DHT22;8244;50.044;9.006;2022-12-10T13:48:17;2.80;99.90
16273;DHT22;8244;50.044;9.006;2022-12-10T13:53:26;2.70;99.90
16273;DHT22;8244;50.044;9.006;2022-12-10T13:58:41;2.60;99.90
16273;DHT22;8244;50.044;9.006;2022-12-10T14:03:59;2.50;99.90
16273;DHT22;8244;50.044;9.006;2022-12-10T14:09:05;2.50;99.90
16273;DHT22;8244;50.044;9.006;2022-12-10T14:14:12;2.40;99.90
16273;DHT22;8244;50.044;9.006;2022-12-10T14:19:16;2.40;99.90
16273;DHT22;8244;50.044;9.006;2022-12-10T14:24:28;2.30;99.90
16273;DHT22;8244;50.044;9.006;2022-12-10T14:29:30;2.20;99.90
16273;DHT22;8244;50.044;9.006;2022-12-10T14:34:33;2.20;99.90
16273;DHT22;8244;50.044;9.006;2022-12-10T14:39:37;2.10;99.90
16273;DHT22;8244;50.044;9.006;2022-12-10T14:44:40;2.10;99.90
16273;DHT22;8244;50.044;9.006;2022-12-10T14:49:45;2.10;99.90
16273;DHT22;8244;50.044;9.006;2022-12-10T14:54:48;2.00;99.90
16273;DHT22;8244;50.044;9.006;2022-12-10T14:59:54;2.00;99.90
16273;DHT22;8244;50.044;9.006;2022-12-10T15:05:00;1.90;99.90
16273;DHT22;8244;50.044;9.006;2022-12-10T15:10:05;1.90;99.90
16273;DHT22;8244;50.044;9.006;2022-12-10T15:15:13;1.90;99.90
16273;DHT22;8244;50.044;9.006;2022-12-10T15:20:22;1.80;99.90
16273;DHT22;8244;50.044;9.006;2022-12-10T15:25:27;1.80;99.90
16273;DHT22;8244;50.044;9.006;2022-12-10T15:30:35;1.80;99.90
16273;DHT22;8244;50.044;9.006;2022-12-10T15:35:39;1.80;99.90
16273;DHT22;8244;50.044;9.006;2022-12-10T15:40:41;1.70;99.90
16273;DHT22;8244;50.044;9.006;2022-12-10T15:45:42;1.70;99.90
16273;DHT22;8244;50.044;9.006;2022-12-10T15:50:45;1.60;99.90
16273;DHT22;8244;50.044;9.006;2022-12-10T15:55:49;1.50;99.90
16273;DHT22;8244;50.044;9.006;2022-12-10T16:00:50;1.40;99.90
16273;DHT22;8244;50.044;9.006;2022-12-10T16:05:53;1.30;99.90
16273;DHT22;8244;50.044;9.006;2022-12-10T16:10:57;1.20;99.90
16273;DHT22;8244;50.044;9.006;2022-12-10T16:16:03;1.10;99.90
16273;DHT22;8244;50.044;9.006;2022-12-10T16:21:07;1.00;99.90
16273;DHT22;8244;50.044;9.006;2022-12-10T16:26:14;0.90;99.90
16273;DHT22;8244;50.044;9.006;2022-12-10T16:31:18;0.80;99.90
16273;DHT22;8244;50.044;9.006;2022-12-10T16:36:21;0.70;99.90
16273;DHT22;8244;50.044;9.006;2022-12-10T16:41:23;0.60;99.90
16273;DHT22;8244;50.044;9.006;2022-12-10T16:46:25;0.50;99.90
16273;DHT22;8244;50.044;9.006;2022-12-10T16:51:29;0.30;99.90
16273;DHT22;8244;50.044;9.006;2022-12-10T16:56:31;0.20;99.90
16273;DHT22;8244;50.044;9.006;2022-12-10T17:01:33;0.10;99.90
16273;DHT22;8244;50.044;9.006;2022-12-10T17:06:36;0.00;99.90
16273;DHT22;8244;50.044;9.006;2022-12-10T17:11:40;-0.10;99.90
16273;DHT22;8244;50.044;9.006;2022-12-10T17:16:50;-0.20;99.90
16273;DHT22;8244;50.044;9.006;2022-12-10T17:21:53;-0.30;99.90
16273;DHT22;8244;50.044;9.006;2022-12-10T17:26:58;-0.40;99.90
16273;DHT22;8244;50.044;9.006;2022-12-10T17:32:01;-0.50;99.90
16273;DHT22;8244;50.044;9.006;2022-12-10T17:37:10;-0.70;99.90
16273;DHT22;8244;50.044;9.006;2022-12-10T17:42:12;-0.70;99.90
16273;DHT22;8244;50.044;9.006;2022-12-10T17:47:17;-0.80;99.90
16273;DHT22;8244;50.044;9.006;2022-12-10T17:52:22;-0.90;99.90
16273;DHT22;8244;50.044;9.006;2022-12-10T17:57:23;-1.00;99.90
16273;DHT22;8244;50.044;9.006;2022-12-10T18:02:26;-1.10;99.90
16273;DHT22;8244;50.044;9.006;2022-12-10T18:07:29;-1.20;99.90
16273;DHT22;8244;50.044;9.006;2022-12-10T18:12:30;-1.30;99.90
16273;DHT22;8244;50.044;9.006;2022-12-10T18:17:32;-1.40;99.90
16273;DHT22;8244;50.044;9.006;2022-12-10T18:22:35;-1.50;99.90
16273;DHT22;8244;50.044;9.006;2022-12-10T18:27:37;-1.60;99.90
16273;DHT22;8244;50.044;9.006;2022-12-10T18:32:38;-1.60;99.90
16273;DHT22;8244;50.044;9.006;2022-12-10T18:37:42;-1.70;99.90
16273;DHT22;8244;50.044;9.006;2022-12-10T18:42:44;-1.80;99.90
16273;DHT22;8244;50.044;9.006;2022-12-10T18:47:46;-1.90;99.90
16273;DHT22;8244;50.044;9.006;2022-12-10T18:52:49;-2.00;99.90
16273;DHT22;8244;50.044;9.006;2022-12-10T18:57:51;-2.10;99.90
16273;DHT22;8244;50.044;9.006;2022-12-10T19:02:53;-2.20;99.90
16273;DHT22;8244;50.044;9.006;2022-12-10T19:07:56;-2.20;99.90
16273;DHT22;8244;50.044;9.006;2022-12-10T19:12:58;-2.20;99.90
16273;DHT22;8244;50.044;9.006;2022-12-10T19:17:59;-2.20;99.90
16273;DHT22;8244;50.044;9.006;2022-12-10T19:23:04;-2.20;99.90
16273;DHT22;8244;50.044;9.006;2022-12-10T19:28:06;-2.10;99.90
16273;DHT22;8244;50.044;9.006;2022-12-10T19:33:07;-2.00;99.90
16273;DHT22;8244;50.044;9.006;2022-12-10T19:38:10;-1.90;99.90
16273;DHT22;8244;50.044;9.006;2022-12-10T19:43:12;-1.80;99.90
16273;DHT22;8244;50.044;9.006;2022-12-10T19:48:14;-1.70;99.90
16273;DHT22;8244;50.044;9.006;2022-12-10T19:53:17;-1.60;99.90
16273;DHT22;8244;50.044;9.006;2022-12-10T19:58:18;-1.50;99.90
16273;DHT22;8244;50.044;9.006;2022-12-10T20:03:20;-1.50;99.90
16273;DHT22;8244;50.044;9.006;2022-12-10T20:08:23;-1.40;99.90
16273;DHT22;8244;50.044;9.006;2022-12-10T20:13:24;-1.40;99.90
16273;DHT22;8244;50.044;9.006;2022-12-10T20:18:26;-1.40;99.90
16273;DHT22;8244;50.044;9.006;2022-12-10T20:23:29;-1.30;99.90
16273;DHT22;8244;50.044;9.006;2022-12-10T20:28:31;-1.30;99.90
16273;DHT22;8244;50.044;9.006;2022-12-10T20:33:32;-1.30;99.90
16273;DHT22;8244;50.044;9.006;2022-12-10T20:38:35;-1.20;99.90
16273;DHT22;8244;50.044;9.006;2022-12-10T20:43:37;-1.20;99.90
16273;DHT22;8244;50.044;9.006;2022-12-10T20:48:40;-1.10;99.90
16273;DHT22;8244;50.044;9.006;2022-12-10T20:53:44;-1.10;99.90
16273;DHT22;8244;50.044;9.006;2022-12-10T20:58:46;-1.10;99.90
16273;DHT22;8244;50.044;9.006;2022-12-10T21:03:48;-1.00;99.90
16273;DHT22;8244;50.044;9.006;2022-12-10T21:08:53;-1.00;99.90
16273;DHT22;8244;50.044;9.006;2022-12-10T21:13:55;-1.00;99.90
16273;DHT22;8244;50.044;9.006;2022-12-10T21:18:58;-0.90;99.90
16273;DHT22;8244;50.044;9.006;2022-12-10T21:24:01;-0.90;99.90
16273;DHT22;8244;50.044;9.006;2022-12-10T21:29:03;-0.90;99.90
16273;DHT22;8244;50.044;9.006;2022-12-10T21:34:05;-0.90;99.90
16273;DHT22;8244;50.044;9.006;2022-12-10T21:39:08;-0.90;99.90
16273;DHT22;8244;50.044;9.006;2022-12-10T21:44:10;-0.90;99.90
16273;DHT22;8244;50.044;9.006;2022-12-10T21:49:12;-0.90;99.90
16273;DHT22;8244;50.044;9.006;2022-12-10T21:54:15;-0.90;99.90
16273;DHT22;8244;50.044;9.006;2022-12-10T21:59:16;-0.80;99.90
16273;DHT22;8244;50.044;9.006;2022-12-10T22:04:18;-0.90;99.90
16273;DHT22;8244;50.044;9.006;2022-12-10T22:09:21;-0.80;99.90
16273;DHT22;8244;50.044;9.006;2022-12-10T22:14:23;-0.80;99.90
16273;DHT22;8244;50.044;9.006;2022-12-10T22:19:24;-0.80;99.90
16273;DHT22;8244;50.044;9.006;2022-12-10T22:24:29;-0.80;99.90
16273;DHT22;8244;50.044;9.006;2022-12-10T22:29:31;-0.80;99.90
16273;DHT22;8244;50.044;9.006;2022-12-10T22:34:32;-0.80;99.90
16273;DHT22;8244;50.044;9.006;2022-12-10T22:39:35;-0.80;99.90
16273;DHT22;8244;50.044;9.006;2022-12-10T22:44:37;-0.80;99.90
16273;DHT22;8244;50.044;9.006;2022-12-10T22:49:39;-0.80;99.90
16273;DHT22;8244;50.044;9.006;2022-12-10T22:54:42;-0.80;99.90
16273;DHT22;8244;50.044;9.006;2022-12-10T22:59:43;-0.80;99.90
16273;DHT22;8244;50.044;9.006;2022-12-10T23:04:47;-0.80;99.90
16273;DHT22;8244;50.044;9.006;2022-12-10T23:09:50;-0.80;99.90
16273;DHT22;8244;50.044;9.006;2022-12-10T23:14:52;-0.80;99.90
16273;DHT22;8244;50.044;9.006;2022-12-10T23:19:53;-0.80;99.90
16273;DHT22;8244;50.044;9.006;2022-12-10T23:24:56;-0.80;99.90
16273;DHT22;8244;50.044;9.006;2022-12-10T23:29:58;-0.80;99.90
16273;DHT22;8244;50.044;9.006;2022-12-10T23:34:59;-0.90;99.90
16273;DHT22;8244;50.044;9.006;2022-12-10T23:40:04;-0.90;99.90
16273;DHT22;8244;50.044;9.006;2022-12-10T23:45:08;-0.90;99.90
16273;DHT22;8244;50.044;9.006;2022-12-10T23:50:10;-0.90;99.90
16273;DHT22;8244;50.044;9.006;2022-12-10T23:55:13;-0.90;99.90
